Time;durP1;ratioP1;P1;durP2;ratioP2;P2;SDS_P1;SDS_P2;PMS_P1;PMS_P2;Temp;Humidity;BMP_temperature;BMP_pressure;BME280_temperature;BME280_humidity;BME280_pressure;Samples;Min_cycle;Max_cycle;Signal;HPM_P1;HPM_P2
2023/01/16 05:06:22;;;;;;;;;;;;;;;6.91;62.41;95193.22;4204391;27;10350;-67
2023/01/16 05:08:28;;;;;;;;;;;;;;;7.21;61.56;95188.19;4197930;28;5720;-68
2023/01/16 05:10:30;;;;;;;;;;;;;;;7.43;61.21;95178.94;4197920;28;5798;-69
2023/01/16 05:12:33;;;;;;;;;;;;;;;7.56;61.20;95170.97;4197860;28;5720;-70
2023/01/16 05:14:36;;;;;;;;;;;;;;;7.71;60.84;95161.97;4197480;28;5791;-70
2023/01/16 05:16:41;;;;;;;;;;;;;;;7.81;60.66;95167.53;4196815;28;5650;-70
2023/01/16 05:18:44;;;;;;;;;;;;;;;7.92;60.50;95148.41;4198206;28;5716;-70
2023/01/16 05:20:47;;;;;;;;;;;;;;;8.00;60.36;95155.22;4197827;28;5787;-70
2023/01/16 05:22:51;;;;;;;;;;;;;;;8.06;60.05;95149.91;4197460;28;5087;-70
2023/01/16 05:24:54;;;;;;;;;;;;;;;8.13;60.15;95145.38;4192453;28;5741;-69
2023/01/16 05:26:57;;;;;;;;;;;;;;;8.19;60.11;95138.44;4194633;28;5716;-70
2023/01/16 05:28:59;;;;;;;;;;;;;;;8.22;59.86;95127.47;4196507;28;5802;-69
2023/01/16 05:31:03;;;;;;;;;;;;;;;8.22;59.68;95118.78;4197625;28;5736;-69
2023/01/16 05:33:06;;;;;;;;;;;;;;;8.23;59.66;95117.75;4197504;28;6408;-68
2023/01/16 05:35:10;;;;;;;;;;;;;;;8.26;59.69;95112.03;4195897;28;6480;-69
2023/01/16 05:37:12;;;;;;;;;;;;;;;8.27;59.46;95105.75;4192907;28;5728;-68
2023/01/16 05:39:16;;;;;;;;;;;;;;;8.32;59.40;95116.44;4187681;28;5719;-69
2023/01/16 05:41:19;;;;;;;;;;;;;;;8.33;59.27;95108.31;4191316;28;5748;-69
2023/01/16 05:43:22;;;;;;;;;;;;;;;8.32;58.88;95096.19;4196090;28;5828;-69
2023/01/16 05:45:25;;;;;;;;;;;;;;;8.26;59.26;95086.50;4184957;28;5627;-68
2023/01/16 05:47:29;;;;;;;;;;;;;;;8.28;59.15;95078.44;4192696;28;7477;-68
2023/01/16 05:49:32;;;;;;;;;;;;;;;8.29;58.90;95075.56;4187495;28;5745;-68
2023/01/16 05:51:34;;;;;;;;;;;;;;;8.32;58.93;95058.53;4195881;28;5862;-68
2023/01/16 05:53:37;;;;;;;;;;;;;;;8.30;58.90;95045.59;4196342;28;5966;-68
2023/01/16 05:55:47;;;;;;;;;;;;;;;8.33;58.68;95039.06;4196625;28;5264;-69
2023/01/16 05:57:50;;;;;;;;;;;;;;;8.34;58.55;95036.22;4188538;28;7051;-69
2023/01/16 05:59:53;;;;;;;;;;;;;;;8.36;58.53;95039.44;4191434;28;5712;-69
2023/01/16 06:01:56;;;;;;;;;;;;;;;8.41;58.53;95023.00;4194440;28;5813;-69
2023/01/16 06:03:59;;;;;;;;;;;;;;;8.45;58.30;95016.25;4189417;28;5779;-68
2023/01/16 06:06:02;;;;;;;;;;;;;;;8.45;58.27;95013.63;4188211;28;5696;-69
2023/01/16 06:08:05;;;;;;;;;;;;;;;8.44;58.33;95004.13;4181509;28;5741;-68
2023/01/16 06:10:09;;;;;;;;;;;;;;;8.48;58.18;94996.56;4180602;28;5944;-69
2023/01/16 06:12:16;;;;;;;;;;;;;;;8.46;58.18;94976.53;4180759;28;5708;-69
2023/01/16 06:14:19;;;;;;;;;;;;;;;8.44;58.11;94967.25;4177954;28;5820;-69
2023/01/16 06:16:22;;;;;;;;;;;;;;;8.42;57.92;94961.41;4182505;28;5757;-68
2023/01/16 06:18:25;;;;;;;;;;;;;;;8.43;57.77;94955.91;4183991;28;5829;-69
2023/01/16 06:20:28;;;;;;;;;;;;;;;8.43;57.48;94949.84;4174093;28;5720;-71
2023/01/16 06:22:31;;;;;;;;;;;;;;;8.45;57.51;94958.31;4172998;28;5792;-67
2023/01/16 06:24:33;;;;;;;;;;;;;;;8.45;57.54;94963.59;4179493;28;6061;-66
2023/01/16 06:26:36;;;;;;;;;;;;;;;8.45;57.79;94968.84;4184422;28;7188;-66
2023/01/16 06:28:40;;;;;;;;;;;;;;;8.42;57.42;94983.28;4178226;28;5835;-66
2023/01/16 06:30:43;;;;;;;;;;;;;;;8.44;57.32;94973.31;4176919;28;5712;-70
2023/01/16 06:32:49;;;;;;;;;;;;;;;8.45;57.61;94976.75;4180883;28;5799;-70
2023/01/16 06:34:52;;;;;;;;;;;;;;;8.48;57.38;94972.84;4177836;28;5774;-71
2023/01/16 06:36:54;;;;;;;;;;;;;;;8.48;56.94;94967.59;4174595;28;5963;-70
2023/01/16 06:38:57;;;;;;;;;;;;;;;8.46;57.20;94955.44;4179988;28;6361;-73
2023/01/16 06:41:00;;;;;;;;;;;;;;;8.47;57.08;94956.25;4176060;28;5847;-71
2023/01/16 06:43:02;;;;;;;;;;;;;;;8.41;56.93;94942.16;4179368;28;5719;-71
2023/01/16 06:45:08;;;;;;;;;;;;;;;8.39;56.94;94938.97;4170505;28;5738;-71
2023/01/16 06:47:10;;;;;;;;;;;;;;;8.40;57.23;94945.03;4169416;28;5752;-72
2023/01/16 06:49:13;;;;;;;;;;;;;;;8.42;56.82;94956.94;4169460;28;5884;-71
2023/01/16 06:51:16;;;;;;;;;;;;;;;8.43;56.71;94950.66;4168362;28;5661;-71
2023/01/16 06:53:19;;;;;;;;;;;;;;;8.44;57.03;94951.44;4169452;28;5777;-71
2023/01/16 06:55:22;;;;;;;;;;;;;;;8.41;56.47;94954.53;4169362;28;5745;-71
2023/01/16 06:57:24;;;;;;;;;;;;;;;8.39;57.00;94957.41;4169178;28;6466;-71
2023/01/16 06:59:27;;;;;;;;;;;;;;;8.40;56.71;94950.28;4169286;28;5843;-71
2023/01/16 07:01:31;;;;;;;;;;;;;;;8.37;56.42;94954.16;4176939;28;5808;-71
2023/01/16 07:03:34;;;;;;;;;;;;;;;8.34;56.72;94951.97;4179966;28;5745;-70
2023/01/16 07:05:37;;;;;;;;;;;;;;;8.33;56.58;94939.00;4179007;28;5875;-71
2023/01/16 07:07:39;;;;;;;;;;;;;;;8.36;56.67;94944.66;4186535;28;5764;-72
2023/01/16 07:09:42;;;;;;;;;;;;;;;8.40;56.68;94945.03;4187138;28;5727;-72
2023/01/16 07:11:45;;;;;;;;;;;;;;;8.39;56.42;94951.31;4186855;28;5807;-71
2023/01/16 07:13:48;;;;;;;;;;;;;;;8.37;56.12;94948.91;4185084;28;5836;-71
2023/01/16 07:22:56;;;;;;;;;;;;;;;8.23;56.05;94942.19;4183870;28;5815;-71
2023/01/16 07:25:00;;;;;;;;;;;;;;;8.28;56.46;94936.25;4186344;28;5856;-71
2023/01/16 07:27:08;;;;;;;;;;;;;;;8.32;55.95;94943.47;4184264;28;5689;-72
2023/01/16 07:29:11;;;;;;;;;;;;;;;8.29;55.82;94937.88;4185920;28;5883;-71
2023/01/16 07:31:15;;;;;;;;;;;;;;;8.33;55.93;94937.19;4185201;28;5838;-71
2023/01/16 07:33:19;;;;;;;;;;;;;;;8.26;55.79;94933.81;4193555;28;5698;-73
2023/01/16 07:35:21;;;;;;;;;;;;;;;8.29;56.36;94929.97;4191857;28;5720;-71
2023/01/16 07:37:24;;;;;;;;;;;;;;;8.37;56.02;94930.47;4187760;28;5837;-71
2023/01/16 07:39:27;;;;;;;;;;;;;;;8.39;56.03;94920.53;4186528;28;5736;-71
2023/01/16 07:41:30;;;;;;;;;;;;;;;8.37;55.76;94903.34;4187616;28;5712;-72
2023/01/16 07:43:33;;;;;;;;;;;;;;;8.38;55.87;94910.19;4193181;28;5687;-71
2023/01/16 07:45:38;;;;;;;;;;;;;;;8.40;56.07;94918.69;4187245;28;5889;-72
2023/01/16 07:47:40;;;;;;;;;;;;;;;8.40;55.94;94908.16;4187073;28;5779;-72
2023/01/16 07:49:45;;;;;;;;;;;;;;;8.39;56.05;94902.09;4187062;28;5720;-72
2023/01/16 07:51:47;;;;;;;;;;;;;;;8.44;56.34;94901.41;4186900;28;5732;-72
2023/01/16 07:53:50;;;;;;;;;;;;;;;8.45;56.08;94898.56;4186709;28;5742;-71
2023/01/16 07:55:55;;;;;;;;;;;;;;;8.46;56.32;94904.63;4187589;28;5711;-71
2023/01/16 07:57:58;;;;;;;;;;;;;;;8.48;56.23;94905.19;4187222;28;5736;-73
2023/01/16 08:00:01;;;;;;;;;;;;;;;8.47;56.32;94893.06;4186663;28;5724;-71
2023/01/16 08:02:04;;;;;;;;;;;;;;;8.49;56.09;94887.56;4186198;28;5417;-71
2023/01/16 08:04:06;;;;;;;;;;;;;;;8.47;56.27;94887.78;4186210;28;7069;-71
2023/01/16 08:06:13;;;;;;;;;;;;;;;8.48;56.52;94865.69;4186875;28;5720;-71
2023/01/16 08:08:16;;;;;;;;;;;;;;;8.50;56.25;94874.19;4186563;28;5725;-72
2023/01/16 08:10:18;;;;;;;;;;;;;;;8.54;56.33;94872.69;4186159;28;5847;-72
2023/01/16 08:12:21;;;;;;;;;;;;;;;8.56;56.13;94854.84;4184321;28;5830;-71
2023/01/16 08:14:24;;;;;;;;;;;;;;;8.59;56.53;94849.09;4187346;28;5705;-72
2023/01/16 08:16:27;;;;;;;;;;;;;;;8.61;56.60;94856.81;4186297;28;6409;-71
2023/01/16 08:18:30;;;;;;;;;;;;;;;8.60;56.53;94861.25;4186838;28;5740;-71
2023/01/16 08:20:33;;;;;;;;;;;;;;;8.55;56.68;94868.22;4186277;28;5720;-71
2023/01/16 08:22:42;;;;;;;;;;;;;;;8.44;56.75;94859.28;4183549;28;5719;-71
2023/01/16 08:24:45;;;;;;;;;;;;;;;8.42;56.55;94869.25;4186764;28;5716;-72
2023/01/16 08:26:47;;;;;;;;;;;;;;;8.37;56.72;94863.84;4185897;28;5642;-72
2023/01/16 08:28:53;;;;;;;;;;;;;;;8.28;56.94;94859.91;4184775;28;5716;-72
2023/01/16 08:30:56;;;;;;;;;;;;;;;8.22;56.96;94863.44;4185308;28;5712;-73
2023/01/16 08:33:00;;;;;;;;;;;;;;;8.22;56.99;94864.25;4184825;28;5724;-72
2023/01/16 08:35:04;;;;;;;;;;;;;;;8.25;57.06;94853.25;4186781;28;5707;-72
2023/01/16 08:37:10;;;;;;;;;;;;;;;8.26;56.88;94846.16;4186929;28;5876;-72
2023/01/16 08:39:14;;;;;;;;;;;;;;;8.18;57.12;94840.22;4186239;28;5854;-72
2023/01/16 08:53:12;;;;;;;;;;;;;;;8.20;57.33;94815.50;4185651;28;5724;-71
2023/01/16 08:55:19;;;;;;;;;;;;;;;8.15;57.53;94821.41;4177935;28;5727;-71
2023/01/16 08:57:22;;;;;;;;;;;;;;;8.04;57.65;94820.38;4177310;28;5787;-71
2023/01/16 08:59:24;;;;;;;;;;;;;;;8.00;57.64;94826.31;4184263;28;5715;-71
2023/01/16 09:01:27;;;;;;;;;;;;;;;7.93;57.86;94812.44;4181582;28;5721;-71
2023/01/16 09:03:30;;;;;;;;;;;;;;;7.94;57.61;94830.66;4186198;28;6425;-72
2023/01/16 09:05:33;;;;;;;;;;;;;;;7.92;57.94;94811.63;4185105;28;5799;-71
2023/01/16 09:07:36;;;;;;;;;;;;;;;7.92;57.79;94811.63;4186079;28;5716;-72
2023/01/16 09:09:40;;;;;;;;;;;;;;;7.88;58.09;94810.47;4190670;28;6401;-71
2023/01/16 09:14:05;;;;;;;;;;;;;;;7.86;57.98;94799.38;4185069;28;5863;-71
2023/01/16 09:16:26;;;;;;;;;;;;;;;7.86;58.21;94810.72;4178601;28;6441;-71
2023/01/16 09:18:29;;;;;;;;;;;;;;;7.82;58.25;94800.88;4183944;28;5815;-72
2023/01/16 09:20:39;;;;;;;;;;;;;;;7.79;58.22;94799.47;4184966;28;5727;-72
2023/01/16 09:22:42;;;;;;;;;;;;;;;7.85;58.21;94788.06;4185283;28;5720;-72
2023/01/16 09:24:45;;;;;;;;;;;;;;;7.92;58.34;94787.94;4187194;28;5951;-72
2023/01/16 09:26:50;;;;;;;;;;;;;;;7.95;58.24;94790.16;4189248;28;5727;-72
2023/01/16 09:28:53;;;;;;;;;;;;;;;7.97;58.52;94793.34;4185520;28;5724;-72
2023/01/16 09:30:57;;;;;;;;;;;;;;;7.98;58.54;94799.41;4185883;28;5705;-72
2023/01/16 09:32:59;;;;;;;;;;;;;;;7.92;58.46;94790.59;4183764;28;5826;-72
2023/01/16 09:35:02;;;;;;;;;;;;;;;7.90;58.69;94787.38;4183102;28;5925;-73
2023/01/16 09:37:06;;;;;;;;;;;;;;;7.88;58.69;94795.50;4181082;28;5723;-72
2023/01/16 09:39:09;;;;;;;;;;;;;;;7.89;58.41;94785.78;4179374;28;5722;-72
2023/01/16 09:43:35;;;;;;;;;;;;;;;7.90;58.55;94792.63;4184303;28;5732;-73
2023/01/16 09:43:42;;;;;;;;;;;;;;;7.83;58.76;94797.22;4187209;28;5811;-72
2023/01/16 09:45:48;;;;;;;;;;;;;;;7.75;58.87;94794.91;4188763;28;6868;-72
2023/01/16 09:47:55;;;;;;;;;;;;;;;7.76;58.72;94807.81;4186093;28;5700;-72
2023/01/16 09:50:03;;;;;;;;;;;;;;;7.76;59.05;94809.66;4187994;28;5747;-72
2023/01/16 09:59:28;;;;;;;;;;;;;;;7.61;59.10;94830.28;4181846;28;5737;-72
2023/01/16 10:01:36;;;;;;;;;;;;;;;7.53;59.20;94824.31;4188664;28;6311;-73
2023/01/16 10:03:42;;;;;;;;;;;;;;;7.51;59.45;94822.94;4189884;28;5712;-73
2023/01/16 10:05:55;;;;;;;;;;;;;;;7.50;59.27;94823.97;4188242;28;5708;-72
2023/01/16 10:08:09;;;;;;;;;;;;;;;7.55;59.48;94826.72;4188829;28;5740;-71
2023/01/16 10:10:27;;;;;;;;;;;;;;;7.61;59.55;94835.56;4188784;28;5720;-73
2023/01/16 10:12:34;;;;;;;;;;;;;;;7.63;59.41;94828.25;4188687;28;5712;-73
2023/01/16 10:14:53;;;;;;;;;;;;;;;7.70;59.50;94828.94;4188490;28;5908;-72
2023/01/16 10:17:10;;;;;;;;;;;;;;;7.71;59.53;94820.06;4184039;28;5860;-72
2023/01/16 10:19:27;;;;;;;;;;;;;;;7.70;59.82;94827.13;4184268;28;5704;-73
2023/01/16 10:21:58;;;;;;;;;;;;;;;7.74;59.72;94823.03;4174128;28;5903;-72
2023/01/16 10:24:07;;;;;;;;;;;;;;;7.78;60.02;94815.47;4186724;28;5728;-72
2023/01/16 10:26:18;;;;;;;;;;;;;;;7.81;60.17;94812.41;4188927;28;5821;-72
2023/01/16 10:28:30;;;;;;;;;;;;;;;7.84;60.18;94817.22;4181115;28;5720;-72
2023/01/16 10:30:39;;;;;;;;;;;;;;;7.86;60.27;94804.66;4189033;28;6623;-71
2023/01/16 10:32:47;;;;;;;;;;;;;;;7.88;60.58;94815.75;4188368;28;5711;-72
2023/01/16 10:34:55;;;;;;;;;;;;;;;7.88;60.60;94806.03;4188957;28;5732;-73
2023/01/16 10:37:00;;;;;;;;;;;;;;;7.89;60.88;94812.09;4188288;28;5787;-72
2023/01/16 10:39:04;;;;;;;;;;;;;;;7.93;60.98;94807.16;4187260;28;5861;-71
2023/01/16 10:51:00;;;;;;;;;;;;;;;8.28;61.23;94758.06;4121674;28;5738;-73
2023/01/16 10:53:05;;;;;;;;;;;;;;;8.35;61.02;94750.84;4120725;28;5073;-72
2023/01/16 10:55:10;;;;;;;;;;;;;;;8.40;61.29;94740.44;4120861;28;7372;-72
2023/01/16 10:57:17;;;;;;;;;;;;;;;8.45;61.26;94743.19;4121822;28;5772;-71
2023/01/16 10:59:23;;;;;;;;;;;;;;;8.52;61.22;94727.28;4112962;28;5733;-72
2023/01/16 11:01:30;;;;;;;;;;;;;;;8.61;61.29;94731.19;4125456;28;5306;-72
2023/01/16 11:03:36;;;;;;;;;;;;;;;8.61;61.19;94730.38;4118250;28;7723;-72
2023/01/16 11:05:39;;;;;;;;;;;;;;;8.60;61.42;94728.75;4116780;28;5726;-73
2023/01/16 11:07:41;;;;;;;;;;;;;;;8.57;61.39;94713.41;4118938;28;5738;-72
2023/01/16 11:09:45;;;;;;;;;;;;;;;8.52;61.24;94711.47;4111768;28;5744;-72
2023/01/16 11:18:59;;;;;;;;;;;;;;;8.61;61.58;94698.78;4123150;28;5721;-73
2023/01/16 11:21:15;;;;;;;;;;;;;;;8.68;61.31;94689.69;4123479;28;5750;-73
2023/01/16 11:23:21;;;;;;;;;;;;;;;8.76;61.35;94678.00;4136929;28;5722;-72
2023/01/16 11:25:26;;;;;;;;;;;;;;;8.79;61.46;94676.72;4115988;28;5829;-73
2023/01/16 11:27:34;;;;;;;;;;;;;;;8.82;61.25;94671.78;4173068;28;5756;-74
2023/01/16 11:29:42;;;;;;;;;;;;;;;8.87;61.49;94660.56;4187757;28;6072;-74
2023/01/16 11:31:54;;;;;;;;;;;;;;;8.93;61.37;94660.41;4187454;28;5838;-73
2023/01/16 11:34:02;;;;;;;;;;;;;;;9.00;61.30;94649.75;4190242;28;5741;-72
2023/01/16 11:36:08;;;;;;;;;;;;;;;9.01;61.48;94640.78;4175934;28;5936;-73
2023/01/16 11:38:14;;;;;;;;;;;;;;;9.02;61.30;94632.66;4187535;28;5732;-73
2023/01/16 11:40:23;;;;;;;;;;;;;;;9.05;61.17;94639.28;4180620;28;5818;-73
2023/01/16 11:47:12;;;;;;;;;;;;;;;9.18;60.78;94604.75;4187297;28;5736;-73
2023/01/16 11:49:17;;;;;;;;;;;;;;;9.20;60.78;94602.66;4187967;28;6413;-73
2023/01/16 11:51:24;;;;;;;;;;;;;;;9.22;60.55;94597.94;4179828;28;5712;-73
2023/01/16 11:53:31;;;;;;;;;;;;;;;9.25;60.51;94584.28;4186911;28;5712;-72
2023/01/16 11:55:40;;;;;;;;;;;;;;;9.28;60.38;94594.34;4183608;28;5650;-73
2023/01/16 11:57:51;;;;;;;;;;;;;;;9.30;60.53;94587.03;4186775;28;5712;-73
2023/01/16 12:00:28;;;;;;;;;;;;;;;9.37;60.32;94584.22;4190835;28;5700;-73
2023/01/16 12:03:10;;;;;;;;;;;;;;;9.34;60.15;94588.13;4179323;28;6569;-73
2023/01/16 12:07:57;;;;;;;;;;;;;;;9.26;60.31;94585.09;4182882;28;5822;-73
2023/01/16 12:10:06;;;;;;;;;;;;;;;9.28;60.42;94578.53;4185101;28;5707;-72
2023/01/16 12:14:49;;;;;;;;;;;;;;;9.29;60.41;94564.31;4182511;28;5789;-73
2023/01/16 12:17:07;;;;;;;;;;;;;;;9.31;60.18;94564.88;4184886;28;5712;-73
2023/01/16 12:19:34;;;;;;;;;;;;;;;9.30;60.07;94554.59;4187987;28;5720;-73
2023/01/16 12:21:46;;;;;;;;;;;;;;;9.26;60.31;94559.50;4182313;28;5743;-73
2023/01/16 12:24:00;;;;;;;;;;;;;;;9.27;59.98;94537.38;4186440;28;5095;-73
2023/01/16 12:26:13;;;;;;;;;;;;;;;9.24;59.62;94551.03;4186528;28;5859;-73
2023/01/16 12:28:30;;;;;;;;;;;;;;;9.38;59.96;94537.53;4188929;28;5720;-79
2023/01/16 12:30:49;;;;;;;;;;;;;;;10.05;59.94;94526.88;4177749;28;5733;-80
2023/01/16 12:33:11;;;;;;;;;;;;;;;10.48;59.38;94537.47;4188167;28;5837;-73
2023/01/16 12:35:39;;;;;;;;;;;;;;;10.31;58.95;94541.25;4182857;28;5088;-72
2023/01/16 12:38:06;;;;;;;;;;;;;;;10.07;58.47;94528.22;4179536;28;7796;-72
2023/01/16 12:40:28;;;;;;;;;;;;;;;9.98;58.90;94534.19;4183821;28;5709;-72
2023/01/16 12:45:23;;;;;;;;;;;;;;;9.88;58.78;94519.81;4182419;28;5756;-72
2023/01/16 12:47:41;;;;;;;;;;;;;;;9.80;59.18;94549.25;4180496;28;5865;-72
2023/01/16 12:49:58;;;;;;;;;;;;;;;9.82;58.55;94539.25;4171850;28;5862;-72
2023/01/16 12:52:23;;;;;;;;;;;;;;;9.75;58.76;94532.56;4178286;28;5725;-72
2023/01/16 12:54:43;;;;;;;;;;;;;;;9.71;58.66;94529.59;4176107;28;5713;-72
2023/01/16 12:56:57;;;;;;;;;;;;;;;9.72;58.66;94525.13;4176968;28;5803;-71
2023/01/16 12:59:07;;;;;;;;;;;;;;;9.73;58.63;94526.72;4182497;28;5135;-73
2023/01/16 13:01:14;;;;;;;;;;;;;;;9.71;58.53;94516.41;4182361;28;5756;-72
2023/01/16 13:03:26;;;;;;;;;;;;;;;9.67;58.93;94511.88;4178201;28;5805;-73
2023/01/16 13:05:34;;;;;;;;;;;;;;;9.63;58.44;94522.13;4180632;28;5735;-73
2023/01/16 13:07:45;;;;;;;;;;;;;;;9.64;58.59;94526.34;4182874;28;5818;-73
2023/01/16 13:13:20;;;;;;;;;;;;;;;9.65;58.53;94527.94;4182783;28;5712;-72
2023/01/16 13:14:47;;;;;;;;;;;;;;;9.49;58.66;94536.66;4171034;28;5733;-73
2023/01/16 13:16:59;;;;;;;;;;;;;;;9.42;58.46;94534.19;4180917;28;5811;-73
2023/01/16 13:19:06;;;;;;;;;;;;;;;9.41;58.82;94542.34;4184773;28;5815;-73
2023/01/16 13:21:14;;;;;;;;;;;;;;;9.40;58.69;94546.00;4184550;28;5746;-73
2023/01/16 13:23:23;;;;;;;;;;;;;;;9.38;58.49;94554.16;4185636;28;5642;-72
2023/01/16 13:25:33;;;;;;;;;;;;;;;9.31;58.83;94558.81;4186073;28;5830;-73
2023/01/16 13:27:41;;;;;;;;;;;;;;;9.25;59.05;94555.28;4179432;28;5723;-73
2023/01/16 13:29:48;;;;;;;;;;;;;;;9.18;59.11;94541.47;4186372;28;6537;-73
2023/01/16 13:31:56;;;;;;;;;;;;;;;9.17;59.29;94555.66;4184499;28;5724;-73
2023/01/16 13:34:14;;;;;;;;;;;;;;;9.15;59.02;94557.75;4177920;28;5741;-73
2023/01/16 13:36:55;;;;;;;;;;;;;;;9.17;59.33;94546.97;4186367;28;6434;-73
2023/01/16 13:39:11;;;;;;;;;;;;;;;9.12;59.23;94531.06;4171761;28;5733;-73
2023/01/16 13:41:22;;;;;;;;;;;;;;;9.10;59.27;94564.78;4179877;28;5816;-73
2023/01/16 13:45:54;;;;;;;;;;;;;;;9.02;59.56;94563.31;4185648;28;5708;-73
2023/01/16 13:47:58;;;;;;;;;;;;;;;9.00;59.67;94552.22;4186527;28;6505;-73
2023/01/16 13:50:05;;;;;;;;;;;;;;;8.95;59.94;94562.69;4178137;28;5891;-73
2023/01/16 13:52:19;;;;;;;;;;;;;;;8.87;59.72;94557.78;4181706;28;5938;-73
2023/01/16 13:54:25;;;;;;;;;;;;;;;8.80;59.80;94565.84;4176616;28;5947;-72
2023/01/16 13:56:31;;;;;;;;;;;;;;;8.74;60.32;94562.31;4180956;28;5850;-71
2023/01/16 13:58:39;;;;;;;;;;;;;;;8.65;60.53;94557.66;4179194;28;5851;-71
2023/01/16 14:00:43;;;;;;;;;;;;;;;8.60;60.68;94550.44;4180261;28;5910;-72
2023/01/16 14:03:02;;;;;;;;;;;;;;;8.52;60.98;94560.56;4185162;28;5811;-72
2023/01/16 14:05:23;;;;;;;;;;;;;;;8.44;61.18;94553.84;4182067;28;5874;-72
2023/01/16 14:11:05;;;;;;;;;;;;;;;8.42;61.25;94550.66;4078413;29;6834;-72
2023/01/16 14:13:24;;;;;;;;;;;;;;;8.44;61.69;94551.22;4066937;29;5883;-72
2023/01/16 14:18:18;;;;;;;;;;;;;;;8.52;61.40;94537.69;4070347;29;5829;-72
2023/01/16 14:20:43;;;;;;;;;;;;;;;8.53;61.52;94549.81;4067985;29;5945;-72
2023/01/16 14:25:22;;;;;;;;;;;;;;;8.59;61.51;94540.94;4072196;29;5790;-72
2023/01/16 14:27:30;;;;;;;;;;;;;;;8.63;61.50;94536.84;4066829;29;6596;-74
2023/01/16 14:29:37;;;;;;;;;;;;;;;8.72;61.56;94545.13;4065537;29;5858;-71
2023/01/16 14:31:43;;;;;;;;;;;;;;;8.77;61.24;94536.53;4064410;29;6060;-71
2023/01/16 14:33:47;;;;;;;;;;;;;;;8.74;61.31;94546.50;4067150;29;5929;-71
2023/01/16 14:35:55;;;;;;;;;;;;;;;8.80;61.70;94549.22;4061281;29;5873;-71
2023/01/16 14:38:02;;;;;;;;;;;;;;;8.88;61.44;94551.50;4059893;29;5778;-71
2023/01/16 14:40:20;;;;;;;;;;;;;;;8.95;61.83;94557.41;4066809;29;5890;-71
2023/01/16 14:55:16;;;;;;;;;;;;;;;9.14;61.13;94561.41;4183033;28;5720;-71
2023/01/16 14:57:22;;;;;;;;;;;;;;;9.15;61.10;94560.38;4179669;28;5807;-71
2023/01/16 14:59:30;;;;;;;;;;;;;;;9.16;61.47;94554.06;4185347;28;5768;-71
2023/01/16 15:04:02;;;;;;;;;;;;;;;9.20;60.73;94557.06;4183201;28;5700;-71
2023/01/16 15:06:06;;;;;;;;;;;;;;;9.20;60.99;94560.47;4177599;28;5831;-71
2023/01/16 15:08:15;;;;;;;;;;;;;;;9.27;61.00;94562.94;4181878;28;5927;-71
2023/01/16 15:10:26;;;;;;;;;;;;;;;9.30;60.94;94560.66;4177451;28;5776;-72
2023/01/16 15:12:38;;;;;;;;;;;;;;;9.36;60.44;94552.81;4180874;28;5809;-66
2023/01/16 15:14:52;;;;;;;;;;;;;;;9.36;60.15;94555.44;4183604;28;5708;-67
2023/01/16 15:22:27;;;;;;;;;;;;;;;9.32;59.93;94558.56;4180993;28;5738;-68
2023/01/16 15:24:33;;;;;;;;;;;;;;;9.33;59.90;94575.19;4175829;28;5724;-67
2023/01/16 15:26:52;;;;;;;;;;;;;;;9.32;59.66;94569.13;4172706;28;5712;-67
2023/01/16 15:29:18;;;;;;;;;;;;;;;9.37;60.04;94570.22;4183834;28;5802;-67
2023/01/16 15:31:25;;;;;;;;;;;;;;;9.37;59.34;94575.50;4179238;28;5712;-68
2023/01/16 15:33:47;;;;;;;;;;;;;;;9.41;59.58;94582.72;4180352;28;5727;-65
2023/01/16 15:35:56;;;;;;;;;;;;;;;9.41;59.29;94581.91;4186067;28;5744;-75
2023/01/16 15:38:04;;;;;;;;;;;;;;;9.42;59.09;94567.69;4182396;28;5799;-70
2023/01/16 15:40:09;;;;;;;;;;;;;;;9.42;58.92;94567.69;4187852;28;5739;-68
2023/01/16 15:47:35;;;;;;;;;;;;;;;9.43;58.42;94585.09;4176116;28;6675;-70
2023/01/16 15:49:48;;;;;;;;;;;;;;;9.42;58.35;94579.03;4170061;28;6004;-70
2023/01/16 15:51:52;;;;;;;;;;;;;;;9.46;58.49;94587.25;4178404;28;5799;-70
2023/01/16 15:53:59;;;;;;;;;;;;;;;9.49;58.40;94586.78;4180258;28;6410;-70
2023/01/16 15:56:04;;;;;;;;;;;;;;;9.52;58.41;94578.41;4180113;28;5920;-70
2023/01/16 15:58:14;;;;;;;;;;;;;;;9.51;58.19;94589.97;4177025;28;5704;-70
2023/01/16 16:00:30;;;;;;;;;;;;;;;9.50;58.11;94585.72;4187926;28;5782;-70
2023/01/16 16:02:33;;;;;;;;;;;;;;;9.51;57.75;94576.78;4182247;28;5803;-69
2023/01/16 16:04:36;;;;;;;;;;;;;;;9.49;57.94;94592.03;4177733;28;5860;-69
2023/01/16 16:06:42;;;;;;;;;;;;;;;9.48;57.60;94582.53;4175385;28;5896;-69
2023/01/16 16:08:48;;;;;;;;;;;;;;;9.51;57.51;94593.44;4175016;28;5726;-70
2023/01/16 16:13:19;;;;;;;;;;;;;;;9.54;57.48;94578.94;4187331;28;6284;-70
2023/01/16 16:18:01;;;;;;;;;;;;;;;9.52;57.05;94573.94;4176478;28;5828;-69
2023/01/16 16:20:26;;;;;;;;;;;;;;;9.54;56.98;94576.31;4180236;28;5803;-69
2023/01/16 16:22:49;;;;;;;;;;;;;;;9.56;56.69;94579.50;4176088;28;5922;-71
2023/01/16 16:24:52;;;;;;;;;;;;;;;9.59;56.94;94573.75;4174516;28;5852;-70
2023/01/16 16:26:55;;;;;;;;;;;;;;;9.61;56.77;94576.94;4172987;28;6501;-69
2023/01/16 16:28:59;;;;;;;;;;;;;;;9.61;56.66;94571.66;4180699;28;5838;-70
2023/01/16 16:31:06;;;;;;;;;;;;;;;9.62;56.51;94575.88;4185001;28;5116;-70
2023/01/16 16:33:16;;;;;;;;;;;;;;;9.60;56.56;94562.94;4181060;28;7757;-69
2023/01/16 16:35:24;;;;;;;;;;;;;;;9.61;56.21;94558.47;4178249;28;5816;-68
2023/01/16 16:37:27;;;;;;;;;;;;;;;9.64;56.33;94571.19;4180954;28;5716;-71
2023/01/16 16:39:39;;;;;;;;;;;;;;;9.66;56.33;94558.56;4179923;28;5961;-70
2023/01/16 16:44:24;;;;;;;;;;;;;;;9.68;56.11;94559.13;4174225;28;5836;-70
2023/01/16 16:46:34;;;;;;;;;;;;;;;9.70;56.16;94557.03;4174870;28;5806;-69
2023/01/16 16:48:36;;;;;;;;;;;;;;;9.71;55.98;94558.63;4178143;28;6021;-71
2023/01/16 16:50:40;;;;;;;;;;;;;;;9.73;56.11;94561.81;4178486;28;5719;-71
2023/01/16 16:52:45;;;;;;;;;;;;;;;9.72;55.74;94543.59;4173387;28;5811;-70
2023/01/16 16:54:54;;;;;;;;;;;;;;;9.71;55.89;94566.53;4171233;28;5899;-70
2023/01/16 16:56:59;;;;;;;;;;;;;;;9.68;55.71;94558.31;4173929;28;5893;-70
2023/01/16 16:59:02;;;;;;;;;;;;;;;9.68;55.47;94567.03;4176844;28;5971;-70
2023/01/16 17:01:12;;;;;;;;;;;;;;;9.62;55.31;94575.88;4180367;28;5720;-70
2023/01/16 17:03:19;;;;;;;;;;;;;;;9.53;55.71;94580.78;4175197;28;5732;-70
2023/01/16 17:05:22;;;;;;;;;;;;;;;9.45;55.63;94572.47;4178416;28;5872;-70
2023/01/16 17:07:24;;;;;;;;;;;;;;;9.34;55.94;94576.78;4167813;28;6439;-70
2023/01/16 17:09:31;;;;;;;;;;;;;;;9.20;56.11;94586.03;4171210;28;5737;-70
2023/01/16 17:11:35;;;;;;;;;;;;;;;9.11;56.03;94587.47;4168618;28;5761;-70
2023/01/16 17:13:39;;;;;;;;;;;;;;;9.00;56.19;94591.75;4169940;28;6532;-69
2023/01/16 17:15:44;;;;;;;;;;;;;;;8.90;56.21;94586.31;4170002;28;5829;-69
2023/01/16 17:17:48;;;;;;;;;;;;;;;8.90;56.45;94579.19;4173630;28;5771;-69
2023/01/16 17:19:54;;;;;;;;;;;;;;;8.90;56.74;94596.84;4167644;28;6688;-70
2023/01/16 17:21:56;;;;;;;;;;;;;;;8.82;57.08;94607.75;4171221;28;5837;-70
2023/01/16 17:23:59;;;;;;;;;;;;;;;8.80;57.55;94601.91;4183467;28;5770;-70
2023/01/16 17:26:02;;;;;;;;;;;;;;;8.80;57.57;94594.81;4176776;28;5790;-70
2023/01/16 17:28:07;;;;;;;;;;;;;;;8.81;57.27;94599.03;4182093;28;5829;-70
2023/01/16 17:30:13;;;;;;;;;;;;;;;8.80;57.33;94599.28;4179561;28;5921;-70
2023/01/16 17:32:29;;;;;;;;;;;;;;;8.82;57.41;94602.47;4180545;28;5709;-70
2023/01/16 17:34:32;;;;;;;;;;;;;;;8.87;57.13;94597.31;4176216;28;5766;-70
2023/01/16 17:36:35;;;;;;;;;;;;;;;8.92;57.37;94600.03;4179812;28;6706;-70
2023/01/16 17:38:40;;;;;;;;;;;;;;;8.97;57.39;94598.31;4176828;28;5923;-70
2023/01/16 17:40:43;;;;;;;;;;;;;;;9.01;57.39;94596.78;4181829;28;5836;-70
2023/01/16 17:47:54;;;;;;;;;;;;;;;9.14;57.63;94587.78;4116114;28;5726;-70
2023/01/16 17:52:18;;;;;;;;;;;;;;;9.24;57.32;94569.50;4115497;28;5887;-71
2023/01/16 17:56:37;;;;;;;;;;;;;;;9.30;57.29;94558.00;4117889;28;5833;-69
2023/01/16 17:58:52;;;;;;;;;;;;;;;9.32;57.26;94569.13;4121274;28;5731;-69
2023/01/16 18:01:01;;;;;;;;;;;;;;;9.31;57.21;94566.72;4120965;28;5874;-70
2023/01/16 18:03:06;;;;;;;;;;;;;;;9.32;57.45;94569.13;4119785;28;5818;-70
2023/01/16 18:05:09;;;;;;;;;;;;;;;9.35;57.14;94567.84;4126718;28;5726;-69
2023/01/16 18:07:13;;;;;;;;;;;;;;;9.36;57.23;94564.16;4118743;28;6523;-70
2023/01/16 18:09:16;;;;;;;;;;;;;;;9.38;57.27;94572.63;4118452;28;5730;-69
2023/01/16 18:18:25;;;;;;;;;;;;;;;9.47;56.98;94565.91;4118603;28;5726;-70
2023/01/16 18:20:27;;;;;;;;;;;;;;;9.46;56.65;94568.78;4118707;28;5746;-70
2023/01/16 18:22:33;;;;;;;;;;;;;;;9.43;56.65;94569.28;4118829;28;5750;-70
2023/01/16 18:24:37;;;;;;;;;;;;;;;9.44;56.85;94579.59;4164818;28;5757;-69
2023/01/16 18:26:40;;;;;;;;;;;;;;;9.47;57.04;94584.38;4185541;28;5905;-69
2023/01/16 18:28:43;;;;;;;;;;;;;;;9.51;56.83;94571.50;4185917;28;5704;-69